sensor_id;sensor_type;location;lat;lon;timestamp;P1;durP1;ratioP1;P2;durP2;ratioP2
20399;SDS011;10359;53.596;22.520;2023-01-10T00:02:26;30.90;;;19.47;;
20399;SDS011;10359;53.596;22.520;2023-01-10T00:04:56;121.60;;;26.90;;
20399;SDS011;10359;53.596;22.520;2023-01-10T00:07:25;58.43;;;21.73;;
20399;SDS011;10359;53.596;22.520;2023-01-10T00:09:54;55.13;;;21.60;;
20399;SDS011;10359;53.596;22.520;2023-01-10T00:12:24;33.17;;;20.27;;
20399;SDS011;10359;53.596;22.520;2023-01-10T00:15:10;47.80;;;21.80;;
20399;SDS011;10359;53.596;22.520;2023-01-10T00:17:39;34.07;;;20.50;;
20399;SDS011;10359;53.596;22.520;2023-01-10T00:20:10;42.27;;;21.03;;
20399;SDS011;10359;53.596;22.520;2023-01-10T00:22:40;40.03;;;20.17;;
20399;SDS011;10359;53.596;22.520;2023-01-10T00:25:09;32.50;;;20.53;;
20399;SDS011;10359;53.596;22.520;2023-01-10T00:27:38;35.43;;;20.50;;
20399;SDS011;10359;53.596;22.520;2023-01-10T00:30:08;38.67;;;21.97;;
20399;SDS011;10359;53.596;22.520;2023-01-10T00:32:40;39.90;;;21.70;;
20399;SDS011;10359;53.596;22.520;2023-01-10T00:35:11;92.77;;;27.17;;
20399;SDS011;10359;53.596;22.520;2023-01-10T00:37:41;47.43;;;22.53;;
20399;SDS011;10359;53.596;22.520;2023-01-10T00:40:10;38.30;;;19.23;;
20399;SDS011;10359;53.596;22.520;2023-01-10T00:42:40;36.53;;;19.73;;
20399;SDS011;10359;53.596;22.520;2023-01-10T00:45:26;37.70;;;20.03;;
20399;SDS011;10359;53.596;22.520;2023-01-10T00:47:55;55.17;;;21.60;;
20399;SDS011;10359;53.596;22.520;2023-01-10T00:50:26;36.13;;;20.20;;
20399;SDS011;10359;53.596;22.520;2023-01-10T00:52:55;29.83;;;18.40;;
20399;SDS011;10359;53.596;22.520;2023-01-10T00:55:24;33.20;;;19.83;;
20399;SDS011;10359;53.596;22.520;2023-01-10T00:57:54;36.17;;;20.93;;
20399;SDS011;10359;53.596;22.520;2023-01-10T01:00:24;42.40;;;21.53;;
20399;SDS011;10359;53.596;22.520;2023-01-10T01:02:53;43.03;;;20.30;;
20399;SDS011;10359;53.596;22.520;2023-01-10T01:05:23;35.30;;;20.30;;
20399;SDS011;10359;53.596;22.520;2023-01-10T01:07:54;167.40;;;29.80;;
20399;SDS011;10359;53.596;22.520;2023-01-10T01:10:23;36.13;;;20.60;;
20399;SDS011;10359;53.596;22.520;2023-01-10T01:12:56;43.50;;;21.87;;
20399;SDS011;10359;53.596;22.520;2023-01-10T01:15:26;102.83;;;27.10;;
20399;SDS011;10359;53.596;22.520;2023-01-10T01:17:56;35.77;;;20.57;;
20399;SDS011;10359;53.596;22.520;2023-01-10T01:20:26;47.50;;;21.37;;
20399;SDS011;10359;53.596;22.520;2023-01-10T01:22:56;37.23;;;21.40;;
20399;SDS011;10359;53.596;22.520;2023-01-10T01:25:26;34.70;;;21.40;;
20399;SDS011;10359;53.596;22.520;2023-01-10T01:27:55;46.10;;;22.23;;
20399;SDS011;10359;53.596;22.520;2023-01-10T01:30:25;63.37;;;23.23;;
20399;SDS011;10359;53.596;22.520;2023-01-10T01:32:54;39.33;;;22.17;;
20399;SDS011;10359;53.596;22.520;2023-01-10T01:35:24;38.27;;;21.13;;
20399;SDS011;10359;53.596;22.520;2023-01-10T01:37:54;98.40;;;26.40;;
20399;SDS011;10359;53.596;22.520;2023-01-10T01:40:23;35.37;;;20.33;;
20399;SDS011;10359;53.596;22.520;2023-01-10T01:42:53;38.13;;;20.87;;
20399;SDS011;10359;53.596;22.520;2023-01-10T01:45:33;32.57;;;19.80;;
20399;SDS011;10359;53.596;22.520;2023-01-10T01:48:10;40.90;;;22.10;;
20399;SDS011;10359;53.596;22.520;2023-01-10T01:50:45;59.10;;;23.77;;
20399;SDS011;10359;53.596;22.520;2023-01-10T01:53:21;65.47;;;24.27;;
20399;SDS011;10359;53.596;22.520;2023-01-10T01:55:55;35.37;;;20.70;;
20399;SDS011;10359;53.596;22.520;2023-01-10T01:58:28;101.43;;;27.03;;
20399;SDS011;10359;53.596;22.520;2023-01-10T02:01:02;146.97;;;29.57;;
20399;SDS011;10359;53.596;22.520;2023-01-10T02:03:31;47.27;;;21.90;;
20399;SDS011;10359;53.596;22.520;2023-01-10T02:06:01;63.73;;;23.77;;
20399;SDS011;10359;53.596;22.520;2023-01-10T02:08:31;239.47;;;34.87;;
20399;SDS011;10359;53.596;22.520;2023-01-10T02:13:44;50.33;;;21.13;;
20399;SDS011;10359;53.596;22.520;2023-01-10T02:16:14;44.63;;;21.70;;
20399;SDS011;10359;53.596;22.520;2023-01-10T02:18:51;45.33;;;20.80;;
20399;SDS011;10359;53.596;22.520;2023-01-10T02:21:36;475.60;;;49.97;;
20399;SDS011;10359;53.596;22.520;2023-01-10T02:27:36;73.47;;;25.60;;
20399;SDS011;10359;53.596;22.520;2023-01-10T02:33:17;174.07;;;33.03;;
20399;SDS011;10359;53.596;22.520;2023-01-10T02:38:58;48.73;;;22.10;;
20399;SDS011;10359;53.596;22.520;2023-01-10T02:41:37;79.10;;;24.83;;
20399;SDS011;10359;53.596;22.520;2023-01-10T02:44:13;45.93;;;22.57;;
20399;SDS011;10359;53.596;22.520;2023-01-10T02:46:49;50.60;;;22.27;;
20399;SDS011;10359;53.596;22.520;2023-01-10T02:49:20;39.30;;;21.57;;
20399;SDS011;10359;53.596;22.520;2023-01-10T02:51:49;53.77;;;23.87;;
20399;SDS011;10359;53.596;22.520;2023-01-10T02:54:18;42.63;;;22.97;;
20399;SDS011;10359;53.596;22.520;2023-01-10T03:06:06;92.47;;;28.03;;
20399;SDS011;10359;53.596;22.520;2023-01-10T03:08:48;41.57;;;21.57;;
20399;SDS011;10359;53.596;22.520;2023-01-10T03:11:21;87.03;;;25.67;;
20399;SDS011;10359;53.596;22.520;2023-01-10T03:14:08;91.40;;;27.73;;
20399;SDS011;10359;53.596;22.520;2023-01-10T03:16:44;82.07;;;27.70;;
20399;SDS011;10359;53.596;22.520;2023-01-10T03:19:17;141.93;;;34.77;;
20399;SDS011;10359;53.596;22.520;2023-01-10T03:21:52;85.10;;;27.07;;
20399;SDS011;10359;53.596;22.520;2023-01-10T03:24:23;87.70;;;27.50;;
20399;SDS011;10359;53.596;22.520;2023-01-10T03:26:59;66.17;;;25.30;;
20399;SDS011;10359;53.596;22.520;2023-01-10T03:29:35;108.20;;;29.47;;
20399;SDS011;10359;53.596;22.520;2023-01-10T03:32:09;39.93;;;22.63;;
20399;SDS011;10359;53.596;22.520;2023-01-10T03:34:41;163.17;;;32.47;;
20399;SDS011;10359;53.596;22.520;2023-01-10T03:37:14;52.57;;;24.47;;
20399;SDS011;10359;53.596;22.520;2023-01-10T03:39:49;120.30;;;31.30;;
20399;SDS011;10359;53.596;22.520;2023-01-10T03:42:22;91.53;;;27.17;;
20399;SDS011;10359;53.596;22.520;2023-01-10T03:45:17;80.97;;;28.37;;
20399;SDS011;10359;53.596;22.520;2023-01-10T03:47:50;64.53;;;25.27;;
20399;SDS011;10359;53.596;22.520;2023-01-10T03:50:24;68.40;;;27.37;;
20399;SDS011;10359;53.596;22.520;2023-01-10T03:52:56;47.40;;;24.37;;
20399;SDS011;10359;53.596;22.520;2023-01-10T03:55:26;78.60;;;27.27;;
20399;SDS011;10359;53.596;22.520;2023-01-10T03:57:56;77.73;;;27.00;;
20399;SDS011;10359;53.596;22.520;2023-01-10T04:00:25;60.30;;;23.60;;
20399;SDS011;10359;53.596;22.520;2023-01-10T04:02:54;80.43;;;23.67;;
20399;SDS011;10359;53.596;22.520;2023-01-10T04:05:24;62.97;;;23.63;;
20399;SDS011;10359;53.596;22.520;2023-01-10T04:07:53;67.43;;;24.77;;
20399;SDS011;10359;53.596;22.520;2023-01-10T04:10:23;94.30;;;27.87;;
20399;SDS011;10359;53.596;22.520;2023-01-10T04:12:58;98.10;;;27.33;;
20399;SDS011;10359;53.596;22.520;2023-01-10T04:15:28;64.07;;;24.73;;
20399;SDS011;10359;53.596;22.520;2023-01-10T04:17:57;53.07;;;22.57;;
20399;SDS011;10359;53.596;22.520;2023-01-10T04:20:26;74.80;;;24.37;;
20399;SDS011;10359;53.596;22.520;2023-01-10T04:22:55;65.13;;;23.53;;
20399;SDS011;10359;53.596;22.520;2023-01-10T04:25:26;65.77;;;24.87;;
20399;SDS011;10359;53.596;22.520;2023-01-10T04:27:55;61.33;;;23.57;;
20399;SDS011;10359;53.596;22.520;2023-01-10T04:30:24;57.90;;;23.93;;
20399;SDS011;10359;53.596;22.520;2023-01-10T04:32:53;39.57;;;21.27;;
20399;SDS011;10359;53.596;22.520;2023-01-10T04:35:22;50.60;;;21.83;;
20399;SDS011;10359;53.596;22.520;2023-01-10T04:37:51;98.80;;;27.63;;
20399;SDS011;10359;53.596;22.520;2023-01-10T04:40:20;62.47;;;25.13;;
20399;SDS011;10359;53.596;22.520;2023-01-10T04:42:50;63.33;;;24.70;;
20399;SDS011;10359;53.596;22.520;2023-01-10T04:45:19;73.03;;;25.67;;
20399;SDS011;10359;53.596;22.520;2023-01-10T04:47:49;62.53;;;24.13;;
20399;SDS011;10359;53.596;22.520;2023-01-10T04:50:18;58.03;;;24.40;;
20399;SDS011;10359;53.596;22.520;2023-01-10T04:52:47;135.47;;;28.60;;
20399;SDS011;10359;53.596;22.520;2023-01-10T04:55:16;75.53;;;26.23;;
20399;SDS011;10359;53.596;22.520;2023-01-10T04:57:45;103.50;;;27.63;;
20399;SDS011;10359;53.596;22.520;2023-01-10T05:00:16;54.93;;;22.23;;
20399;SDS011;10359;53.596;22.520;2023-01-10T05:02:45;71.63;;;24.67;;
20399;SDS011;10359;53.596;22.520;2023-01-10T05:05:14;65.47;;;23.80;;
20399;SDS011;10359;53.596;22.520;2023-01-10T05:07:44;59.73;;;24.40;;
20399;SDS011;10359;53.596;22.520;2023-01-10T05:10:14;60.97;;;23.70;;
20399;SDS011;10359;53.596;22.520;2023-01-10T05:12:44;66.47;;;25.00;;
20399;SDS011;10359;53.596;22.520;2023-01-10T05:15:13;46.43;;;22.03;;
20399;SDS011;10359;53.596;22.520;2023-01-10T05:17:43;158.73;;;29.33;;
20399;SDS011;10359;53.596;22.520;2023-01-10T05:20:12;50.37;;;23.20;;
20399;SDS011;10359;53.596;22.520;2023-01-10T05:22:41;118.03;;;28.03;;
20399;SDS011;10359;53.596;22.520;2023-01-10T05:25:11;156.13;;;30.10;;
20399;SDS011;10359;53.596;22.520;2023-01-10T05:27:40;100.07;;;25.60;;
20399;SDS011;10359;53.596;22.520;2023-01-10T05:30:10;44.60;;;21.07;;
20399;SDS011;10359;53.596;22.520;2023-01-10T05:32:40;68.23;;;23.50;;
20399;SDS011;10359;53.596;22.520;2023-01-10T05:35:11;113.43;;;28.17;;
20399;SDS011;10359;53.596;22.520;2023-01-10T05:37:40;79.30;;;24.07;;
20399;SDS011;10359;53.596;22.520;2023-01-10T05:40:09;82.23;;;24.87;;
20399;SDS011;10359;53.596;22.520;2023-01-10T05:42:39;42.27;;;22.03;;
20399;SDS011;10359;53.596;22.520;2023-01-10T05:45:08;56.83;;;21.83;;
20399;SDS011;10359;53.596;22.520;2023-01-10T05:47:38;47.13;;;21.73;;
20399;SDS011;10359;53.596;22.520;2023-01-10T05:50:08;37.90;;;21.07;;
20399;SDS011;10359;53.596;22.520;2023-01-10T05:52:39;43.23;;;21.03;;
20399;SDS011;10359;53.596;22.520;2023-01-10T05:55:08;174.03;;;28.67;;
20399;SDS011;10359;53.596;22.520;2023-01-10T05:57:37;43.90;;;22.17;;
20399;SDS011;10359;53.596;22.520;2023-01-10T06:00:07;44.73;;;22.13;;
20399;SDS011;10359;53.596;22.520;2023-01-10T06:02:37;46.23;;;21.00;;
20399;SDS011;10359;53.596;22.520;2023-01-10T06:05:06;44.77;;;22.43;;
20399;SDS011;10359;53.596;22.520;2023-01-10T06:07:38;34.57;;;20.47;;
20399;SDS011;10359;53.596;22.520;2023-01-10T06:10:07;54.00;;;22.63;;
20399;SDS011;10359;53.596;22.520;2023-01-10T06:12:37;42.00;;;21.67;;
20399;SDS011;10359;53.596;22.520;2023-01-10T06:15:07;35.60;;;19.83;;
20399;SDS011;10359;53.596;22.520;2023-01-10T06:17:37;33.37;;;19.47;;
20399;SDS011;10359;53.596;22.520;2023-01-10T06:20:06;52.80;;;23.37;;
20399;SDS011;10359;53.596;22.520;2023-01-10T06:22:39;38.73;;;23.30;;
20399;SDS011;10359;53.596;22.520;2023-01-10T06:25:09;65.27;;;24.77;;
20399;SDS011;10359;53.596;22.520;2023-01-10T06:27:39;52.90;;;23.50;;
20399;SDS011;10359;53.596;22.520;2023-01-10T06:30:10;175.93;;;36.27;;
20399;SDS011;10359;53.596;22.520;2023-01-10T06:32:41;73.40;;;28.73;;
20399;SDS011;10359;53.596;22.520;2023-01-10T06:35:10;65.63;;;26.57;;
20399;SDS011;10359;53.596;22.520;2023-01-10T06:37:40;104.43;;;33.93;;
20399;SDS011;10359;53.596;22.520;2023-01-10T06:40:10;59.30;;;27.60;;
20399;SDS011;10359;53.596;22.520;2023-01-10T06:42:39;101.40;;;31.23;;
20399;SDS011;10359;53.596;22.520;2023-01-10T06:45:09;46.93;;;23.63;;
20399;SDS011;10359;53.596;22.520;2023-01-10T06:47:38;47.17;;;21.93;;
20399;SDS011;10359;53.596;22.520;2023-01-10T06:50:08;36.20;;;19.03;;
20399;SDS011;10359;53.596;22.520;2023-01-10T06:52:40;60.67;;;21.30;;
20399;SDS011;10359;53.596;22.520;2023-01-10T06:55:09;47.77;;;19.10;;
20399;SDS011;10359;53.596;22.520;2023-01-10T06:57:38;53.60;;;20.23;;
20399;SDS011;10359;53.596;22.520;2023-01-10T07:00:08;61.73;;;30.07;;
20399;SDS011;10359;53.596;22.520;2023-01-10T07:02:37;65.77;;;23.67;;
20399;SDS011;10359;53.596;22.520;2023-01-10T07:05:07;221.47;;;32.30;;
20399;SDS011;10359;53.596;22.520;2023-01-10T07:07:37;67.40;;;22.90;;
20399;SDS011;10359;53.596;22.520;2023-01-10T07:10:08;88.57;;;23.97;;
20399;SDS011;10359;53.596;22.520;2023-01-10T07:12:38;269.00;;;34.43;;
20399;SDS011;10359;53.596;22.520;2023-01-10T07:15:07;96.30;;;23.67;;
20399;SDS011;10359;53.596;22.520;2023-01-10T07:17:37;73.73;;;23.07;;
20399;SDS011;10359;53.596;22.520;2023-01-10T07:20:07;121.13;;;26.17;;
20399;SDS011;10359;53.596;22.520;2023-01-10T07:22:40;130.93;;;27.47;;
20399;SDS011;10359;53.596;22.520;2023-01-10T07:25:51;44.67;;;19.90;;
20399;SDS011;10359;53.596;22.520;2023-01-10T07:28:20;49.03;;;21.07;;
20399;SDS011;10359;53.596;22.520;2023-01-10T07:30:49;41.80;;;19.83;;
20399;SDS011;10359;53.596;22.520;2023-01-10T07:33:18;44.90;;;18.17;;
20399;SDS011;10359;53.596;22.520;2023-01-10T07:35:47;44.70;;;18.53;;
20399;SDS011;10359;53.596;22.520;2023-01-10T07:38:17;52.37;;;20.07;;
20399;SDS011;10359;53.596;22.520;2023-01-10T07:40:45;85.50;;;22.73;;
20399;SDS011;10359;53.596;22.520;2023-01-10T07:43:16;130.77;;;53.70;;
20399;SDS011;10359;53.596;22.520;2023-01-10T07:45:45;52.23;;;20.27;;
20399;SDS011;10359;53.596;22.520;2023-01-10T07:48:14;52.80;;;24.77;;
20399;SDS011;10359;53.596;22.520;2023-01-10T07:50:43;43.17;;;20.33;;
20399;SDS011;10359;53.596;22.520;2023-01-10T07:53:12;56.13;;;22.03;;
20399;SDS011;10359;53.596;22.520;2023-01-10T07:55:41;52.70;;;22.03;;
20399;SDS011;10359;53.596;22.520;2023-01-10T07:58:11;83.53;;;25.23;;
20399;SDS011;10359;53.596;22.520;2023-01-10T08:00:42;45.53;;;22.17;;
20399;SDS011;10359;53.596;22.520;2023-01-10T08:03:11;46.17;;;20.80;;
20399;SDS011;10359;53.596;22.520;2023-01-10T08:05:41;64.03;;;22.17;;
20399;SDS011;10359;53.596;22.520;2023-01-10T08:08:10;51.07;;;19.77;;
20399;SDS011;10359;53.596;22.520;2023-01-10T08:10:40;61.13;;;26.03;;
20399;SDS011;10359;53.596;22.520;2023-01-10T08:13:09;59.50;;;25.80;;
20399;SDS011;10359;53.596;22.520;2023-01-10T08:15:46;92.00;;;27.57;;
20399;SDS011;10359;53.596;22.520;2023-01-10T08:18:16;107.17;;;34.03;;
20399;SDS011;10359;53.596;22.520;2023-01-10T08:20:46;49.17;;;20.77;;
20399;SDS011;10359;53.596;22.520;2023-01-10T08:23:16;63.30;;;25.53;;
20399;SDS011;10359;53.596;22.520;2023-01-10T08:25:45;226.60;;;32.00;;
20399;SDS011;10359;53.596;22.520;2023-01-10T08:28:15;65.87;;;25.13;;
20399;SDS011;10359;53.596;22.520;2023-01-10T08:30:46;61.67;;;22.70;;
20399;SDS011;10359;53.596;22.520;2023-01-10T08:33:16;54.50;;;22.33;;
20399;SDS011;10359;53.596;22.520;2023-01-10T08:35:45;56.87;;;23.27;;
20399;SDS011;10359;53.596;22.520;2023-01-10T08:38:14;70.53;;;25.70;;
20399;SDS011;10359;53.596;22.520;2023-01-10T08:40:43;61.10;;;23.90;;
20399;SDS011;10359;53.596;22.520;2023-01-10T08:43:12;84.07;;;25.93;;
20399;SDS011;10359;53.596;22.520;2023-01-10T08:45:42;129.93;;;32.87;;
20399;SDS011;10359;53.596;22.520;2023-01-10T08:48:12;327.57;;;37.20;;
20399;SDS011;10359;53.596;22.520;2023-01-10T08:50:41;120.53;;;32.43;;
20399;SDS011;10359;53.596;22.520;2023-01-10T08:53:10;94.03;;;30.90;;
20399;SDS011;10359;53.596;22.520;2023-01-10T08:55:40;59.63;;;25.67;;
20399;SDS011;10359;53.596;22.520;2023-01-10T08:58:09;66.13;;;26.03;;
20399;SDS011;10359;53.596;22.520;2023-01-10T09:00:38;59.20;;;27.13;;
20399;SDS011;10359;53.596;22.520;2023-01-10T09:03:07;202.40;;;44.53;;
20399;SDS011;10359;53.596;22.520;2023-01-10T09:05:38;140.77;;;43.13;;
20399;SDS011;10359;53.596;22.520;2023-01-10T09:08:08;303.20;;;66.87;;
20399;SDS011;10359;53.596;22.520;2023-01-10T09:10:37;126.10;;;42.13;;
20399;SDS011;10359;53.596;22.520;2023-01-10T09:13:07;122.00;;;37.07;;
20399;SDS011;10359;53.596;22.520;2023-01-10T09:15:36;98.63;;;33.77;;
20399;SDS011;10359;53.596;22.520;2023-01-10T09:18:05;124.83;;;34.37;;
20399;SDS011;10359;53.596;22.520;2023-01-10T09:20:36;166.67;;;38.13;;
20399;SDS011;10359;53.596;22.520;2023-01-10T09:23:09;99.60;;;34.10;;
20399;SDS011;10359;53.596;22.520;2023-01-10T09:25:43;106.80;;;36.67;;
20399;SDS011;10359;53.596;22.520;2023-01-10T09:28:13;115.43;;;36.80;;
20399;SDS011;10359;53.596;22.520;2023-01-10T09:30:42;101.30;;;36.17;;
20399;SDS011;10359;53.596;22.520;2023-01-10T09:33:11;180.30;;;40.53;;
20399;SDS011;10359;53.596;22.520;2023-01-10T09:35:42;180.83;;;43.90;;
20399;SDS011;10359;53.596;22.520;2023-01-10T09:38:12;108.63;;;36.50;;
20399;SDS011;10359;53.596;22.520;2023-01-10T09:40:48;295.93;;;46.73;;
20399;SDS011;10359;53.596;22.520;2023-01-10T09:43:27;164.20;;;45.67;;
20399;SDS011;10359;53.596;22.520;2023-01-10T09:46:07;262.23;;;53.27;;
20399;SDS011;10359;53.596;22.520;2023-01-10T09:48:41;221.70;;;44.07;;
20399;SDS011;10359;53.596;22.520;2023-01-10T09:51:22;180.47;;;49.37;;
20399;SDS011;10359;53.596;22.520;2023-01-10T09:54:02;121.13;;;42.23;;
20399;SDS011;10359;53.596;22.520;2023-01-10T09:56:38;200.07;;;46.37;;
20399;SDS011;10359;53.596;22.520;2023-01-10T09:59:10;133.23;;;40.50;;
20399;SDS011;10359;53.596;22.520;2023-01-10T10:01:43;298.57;;;54.80;;
20399;SDS011;10359;53.596;22.520;2023-01-10T10:04:19;148.67;;;45.70;;
20399;SDS011;10359;53.596;22.520;2023-01-10T10:06:52;227.80;;;45.43;;
20399;SDS011;10359;53.596;22.520;2023-01-10T10:09:22;204.13;;;40.50;;
20399;SDS011;10359;53.596;22.520;2023-01-10T10:12:03;515.20;;;68.70;;
20399;SDS011;10359;53.596;22.520;2023-01-10T10:14:49;307.17;;;45.13;;
20399;SDS011;10359;53.596;22.520;2023-01-10T10:17:34;353.17;;;46.67;;
20399;SDS011;10359;53.596;22.520;2023-01-10T10:20:17;159.20;;;32.93;;
20399;SDS011;10359;53.596;22.520;2023-01-10T10:23:01;257.87;;;39.50;;
20399;SDS011;10359;53.596;22.520;2023-01-10T10:25:52;137.43;;;30.23;;
20399;SDS011;10359;53.596;22.520;2023-01-10T10:28:38;152.80;;;32.37;;
20399;SDS011;10359;53.596;22.520;2023-01-10T10:31:24;172.13;;;33.13;;
20399;SDS011;10359;53.596;22.520;2023-01-10T10:34:11;260.83;;;37.57;;
20399;SDS011;10359;53.596;22.520;2023-01-10T10:36:46;132.53;;;28.93;;
20399;SDS011;10359;53.596;22.520;2023-01-10T10:39:21;249.80;;;37.67;;
20399;SDS011;10359;53.596;22.520;2023-01-10T10:41:57;196.37;;;31.67;;
20399;SDS011;10359;53.596;22.520;2023-01-10T10:44:30;278.00;;;36.43;;
20399;SDS011;10359;53.596;22.520;2023-01-10T10:47:05;121.17;;;29.93;;
20399;SDS011;10359;53.596;22.520;2023-01-10T10:49:42;120.37;;;27.33;;
20399;SDS011;10359;53.596;22.520;2023-01-10T10:52:19;167.17;;;29.97;;
20399;SDS011;10359;53.596;22.520;2023-01-10T10:54:53;125.13;;;29.60;;
20399;SDS011;10359;53.596;22.520;2023-01-10T10:57:23;64.97;;;24.43;;
20399;SDS011;10359;53.596;22.520;2023-01-10T10:59:53;161.73;;;31.30;;
20399;SDS011;10359;53.596;22.520;2023-01-10T11:02:24;73.00;;;26.07;;
20399;SDS011;10359;53.596;22.520;2023-01-10T11:04:55;63.27;;;23.57;;
20399;SDS011;10359;53.596;22.520;2023-01-10T11:07:27;66.43;;;24.57;;
20399;SDS011;10359;53.596;22.520;2023-01-10T11:10:03;100.83;;;26.70;;
20399;SDS011;10359;53.596;22.520;2023-01-10T11:12:55;98.83;;;25.70;;
20399;SDS011;10359;53.596;22.520;2023-01-10T11:15:33;95.07;;;25.53;;
20399;SDS011;10359;53.596;22.520;2023-01-10T11:18:05;53.80;;;23.37;;
20399;SDS011;10359;53.596;22.520;2023-01-10T11:20:45;132.07;;;29.07;;
20399;SDS011;10359;53.596;22.520;2023-01-10T11:23:36;74.60;;;24.70;;
20399;SDS011;10359;53.596;22.520;2023-01-10T11:26:20;53.10;;;24.13;;
20399;SDS011;10359;53.596;22.520;2023-01-10T11:28:51;63.47;;;24.53;;
20399;SDS011;10359;53.596;22.520;2023-01-10T11:31:32;55.77;;;22.73;;
20399;SDS011;10359;53.596;22.520;2023-01-10T11:34:04;115.43;;;26.37;;
20399;SDS011;10359;53.596;22.520;2023-01-10T11:36:50;119.23;;;29.17;;
20399;SDS011;10359;53.596;22.520;2023-01-10T11:39:20;135.93;;;29.77;;
20399;SDS011;10359;53.596;22.520;2023-01-10T11:41:51;90.30;;;26.83;;
20399;SDS011;10359;53.596;22.520;2023-01-10T11:44:22;89.73;;;28.07;;
20399;SDS011;10359;53.596;22.520;2023-01-10T11:46:53;163.83;;;33.50;;
20399;SDS011;10359;53.596;22.520;2023-01-10T11:49:26;108.77;;;29.20;;
20399;SDS011;10359;53.596;22.520;2023-01-10T11:51:58;97.60;;;25.33;;
20399;SDS011;10359;53.596;22.520;2023-01-10T11:54:30;55.53;;;23.13;;
20399;SDS011;10359;53.596;22.520;2023-01-10T11:57:03;72.47;;;23.93;;
20399;SDS011;10359;53.596;22.520;2023-01-10T11:59:36;83.57;;;25.03;;
20399;SDS011;10359;53.596;22.520;2023-01-10T12:02:10;64.73;;;22.67;;
20399;SDS011;10359;53.596;22.520;2023-01-10T12:04:44;53.13;;;22.20;;
20399;SDS011;10359;53.596;22.520;2023-01-10T12:07:17;64.57;;;22.13;;
20399;SDS011;10359;53.596;22.520;2023-01-10T12:09:53;52.57;;;21.93;;
20399;SDS011;10359;53.596;22.520;2023-01-10T12:12:26;44.33;;;20.70;;
20399;SDS011;10359;53.596;22.520;2023-01-10T12:14:57;52.27;;;22.03;;
20399;SDS011;10359;53.596;22.520;2023-01-10T12:17:29;45.77;;;20.33;;
20399;SDS011;10359;53.596;22.520;2023-01-10T12:20:01;46.43;;;19.50;;
20399;SDS011;10359;53.596;22.520;2023-01-10T12:22:33;41.03;;;18.53;;
20399;SDS011;10359;53.596;22.520;2023-01-10T12:25:09;35.20;;;17.07;;
20399;SDS011;10359;53.596;22.520;2023-01-10T12:27:47;41.17;;;18.17;;
20399;SDS011;10359;53.596;22.520;2023-01-10T12:30:18;38.63;;;17.90;;
20399;SDS011;10359;53.596;22.520;2023-01-10T12:32:55;43.80;;;17.47;;
20399;SDS011;10359;53.596;22.520;2023-01-10T12:35:33;49.50;;;17.50;;
20399;SDS011;10359;53.596;22.520;2023-01-10T12:38:10;43.10;;;17.47;;
20399;SDS011;10359;53.596;22.520;2023-01-10T12:40:51;46.97;;;18.47;;
20399;SDS011;10359;53.596;22.520;2023-01-10T12:43:28;45.60;;;19.87;;
20399;SDS011;10359;53.596;22.520;2023-01-10T12:46:21;55.23;;;20.17;;
20399;SDS011;10359;53.596;22.520;2023-01-10T12:49:12;47.13;;;18.97;;
20399;SDS011;10359;53.596;22.520;2023-01-10T12:51:47;47.77;;;21.40;;
20399;SDS011;10359;53.596;22.520;2023-01-10T12:54:19;49.50;;;20.17;;
20399;SDS011;10359;53.596;22.520;2023-01-10T12:56:50;67.10;;;21.77;;
20399;SDS011;10359;53.596;22.520;2023-01-10T12:59:24;78.80;;;30.90;;
20399;SDS011;10359;53.596;22.520;2023-01-10T13:02:03;41.00;;;19.20;;
20399;SDS011;10359;53.596;22.520;2023-01-10T13:04:35;46.97;;;19.87;;
20399;SDS011;10359;53.596;22.520;2023-01-10T13:07:08;42.20;;;19.03;;
20399;SDS011;10359;53.596;22.520;2023-01-10T13:09:39;44.53;;;20.27;;
20399;SDS011;10359;53.596;22.520;2023-01-10T13:12:10;42.53;;;20.33;;
20399;SDS011;10359;53.596;22.520;2023-01-10T13:14:49;38.77;;;18.13;;
20399;SDS011;10359;53.596;22.520;2023-01-10T13:17:25;38.07;;;18.23;;
20399;SDS011;10359;53.596;22.520;2023-01-10T13:22:56;49.17;;;19.80;;
20399;SDS011;10359;53.596;22.520;2023-01-10T13:25:26;44.60;;;17.90;;
20399;SDS011;10359;53.596;22.520;2023-01-10T13:27:58;46.83;;;20.77;;
20399;SDS011;10359;53.596;22.520;2023-01-10T13:30:33;85.80;;;23.60;;
20399;SDS011;10359;53.596;22.520;2023-01-10T13:33:06;46.37;;;20.47;;
20399;SDS011;10359;53.596;22.520;2023-01-10T13:35:50;40.30;;;20.50;;
20399;SDS011;10359;53.596;22.520;2023-01-10T13:38:21;55.83;;;22.20;;
20399;SDS011;10359;53.596;22.520;2023-01-10T13:40:57;52.90;;;20.53;;
20399;SDS011;10359;53.596;22.520;2023-01-10T13:43:38;39.53;;;19.07;;
20399;SDS011;10359;53.596;22.520;2023-01-10T13:46:36;38.83;;;18.57;;
20399;SDS011;10359;53.596;22.520;2023-01-10T13:55:29;33.63;;;19.03;;
20399;SDS011;10359;53.596;22.520;2023-01-10T13:58:02;38.33;;;17.83;;
20399;SDS011;10359;53.596;22.520;2023-01-10T14:03:51;34.87;;;17.03;;
20399;SDS011;10359;53.596;22.520;2023-01-10T14:06:36;50.13;;;19.77;;
20399;SDS011;10359;53.596;22.520;2023-01-10T14:12:08;37.70;;;16.53;;
20399;SDS011;10359;53.596;22.520;2023-01-10T14:14:50;35.53;;;17.03;;
20399;SDS011;10359;53.596;22.520;2023-01-10T14:17:23;43.37;;;18.10;;
20399;SDS011;10359;53.596;22.520;2023-01-10T14:19:59;41.70;;;19.60;;
20399;SDS011;10359;53.596;22.520;2023-01-10T14:22:58;37.47;;;17.73;;
20399;SDS011;10359;53.596;22.520;2023-01-10T14:25:34;38.47;;;19.43;;
20399;SDS011;10359;53.596;22.520;2023-01-10T14:28:12;63.40;;;21.93;;
20399;SDS011;10359;53.596;22.520;2023-01-10T14:30:50;44.80;;;20.83;;
20399;SDS011;10359;53.596;22.520;2023-01-10T14:33:28;37.27;;;20.27;;
20399;SDS011;10359;53.596;22.520;2023-01-10T14:36:00;45.63;;;21.70;;
20399;SDS011;10359;53.596;22.520;2023-01-10T14:38:32;42.93;;;22.20;;
20399;SDS011;10359;53.596;22.520;2023-01-10T14:41:05;66.80;;;25.50;;
20399;SDS011;10359;53.596;22.520;2023-01-10T14:43:40;34.90;;;20.37;;
20399;SDS011;10359;53.596;22.520;2023-01-10T14:46:13;38.47;;;20.00;;
20399;SDS011;10359;53.596;22.520;2023-01-10T14:48:46;30.97;;;17.83;;
20399;SDS011;10359;53.596;22.520;2023-01-10T14:51:21;26.00;;;15.60;;
20399;SDS011;10359;53.596;22.520;2023-01-10T14:53:54;30.33;;;16.97;;
20399;SDS011;10359;53.596;22.520;2023-01-10T14:56:25;58.80;;;20.27;;
20399;SDS011;10359;53.596;22.520;2023-01-10T14:58:56;25.03;;;16.17;;
20399;SDS011;10359;53.596;22.520;2023-01-10T15:01:25;28.97;;;16.60;;
20399;SDS011;10359;53.596;22.520;2023-01-10T15:03:57;36.10;;;18.70;;
20399;SDS011;10359;53.596;22.520;2023-01-10T15:06:30;38.60;;;19.23;;
20399;SDS011;10359;53.596;22.520;2023-01-10T15:09:18;50.77;;;20.73;;
20399;SDS011;10359;53.596;22.520;2023-01-10T15:11:47;43.13;;;20.30;;
20399;SDS011;10359;53.596;22.520;2023-01-10T15:14:18;34.80;;;19.70;;
20399;SDS011;10359;53.596;22.520;2023-01-10T15:16:51;67.60;;;20.60;;